الصفحة الرئيسية
METAR-TAF:

METAR-TAF

مطار :

شهر كورد, إيران

دائرة عرض: 32-20N, خط طول: 050-51E, ارتفاع: 2078 متر

مراقبة الطقس الحالي

تاريخ ووقت الإصدار 30 دقيقة قبل الساعة 20:00UTC
ريح 10 عقدة من الشمال الغربي
درجة الحرارة 18°درجة مئوية
الرطوبة 26%
ضغط 1014 hPa
الرؤية 10 كم أو أكثر
الغيوم لا تقل 1500 م ولا وجود لمزنة ركامية السحاب الأسود

METAR: OIFS 252000Z 32010KT CAVOK 18/M02 Q1014

زمن: 01:00 (20:30 UTC)


TAF: مفقودة

أرصاد الطقس والتوقعات من أكثر من 4000 مطار (تقارير الطقس للمطار METAR والتنبؤ بالطقس بالمطارTAF).

المحطات المتاحة هي النقط الصفراء والحمراء على الخريطة.

حرك المؤشر فوق النقطة لمعرفة اسم المحطة.

ثم انقر لمعرفة أرصاد وتوقعات الطقس.

لتغيير الخارطة: اضغط على الأزرار الخضراء مع رمز الصليب الأسود للتكبير. على الزر الأخضر مع شرطة للتصغير، أو على الأسهم الخضراء للخرائط المجاورة.


METAR-TAF: